Time;durP1;ratioP1;P1;durP2;ratioP2;P2;SDS_P1;SDS_P2;PMS_P1;PMS_P2;Temp;Humidity;BMP_temperature;BMP_pressure;BME280_temperature;BME280_humidity;BME280_pressure;Samples;Min_cycle;Max_cycle;Signal;HPM_P1;HPM_P2
2022/12/19 00:01:59;;;;;;;24.37;13.77;;;5.40;99.90;;;;;;5034081;28;20262;-64
2022/12/19 00:04:24;;;;;;;22.35;13.80;;;5.40;99.90;;;;;;5033278;28;20178;-64
2022/12/19 00:06:50;;;;;;;24.17;14.47;;;5.50;99.90;;;;;;5034745;28;20262;-64
2022/12/19 00:09:16;;;;;;;22.60;14.37;;;5.50;99.90;;;;;;5034060;28;20838;-64
2022/12/19 00:11:41;;;;;;;21.30;14.67;;;5.50;99.90;;;;;;5033153;28;20190;-64
2022/12/19 00:14:10;;;;;;;21.37;13.30;;;5.60;99.90;;;;;;5032294;28;20185;-64
2022/12/19 00:16:37;;;;;;;21.88;14.45;;;5.50;99.90;;;;;;5034359;28;20225;-64
2022/12/19 00:19:02;;;;;;;25.10;14.38;;;5.40;99.90;;;;;;5033691;28;20250;-64
2022/12/19 00:21:30;;;;;;;20.07;12.73;;;5.30;99.90;;;;;;5035457;28;20586;-64
2022/12/19 00:23:57;;;;;;;21.25;14.60;;;5.10;99.90;;;;;;5034375;28;20481;-64
2022/12/19 00:26:30;;;;;;;21.35;14.18;;;5.10;99.90;;;;;;5034275;28;20209;-64
2022/12/19 00:28:58;;;;;;;26.55;15.32;;;5.10;99.90;;;;;;5035318;28;20174;-64
2022/12/19 00:31:27;;;;;;;19.40;13.20;;;5.40;99.90;;;;;;5033187;28;20187;-64
2022/12/19 00:33:53;;;;;;;23.40;14.90;;;5.30;99.90;;;;;;5033173;28;20179;-64
2022/12/19 00:36:21;;;;;;;27.40;15.43;;;5.30;99.90;;;;;;5034339;28;20182;-64
2022/12/19 00:38:48;;;;;;;23.15;14.05;;;5.30;99.90;;;;;;5032847;28;20694;-64
2022/12/19 00:41:15;;;;;;;23.65;14.27;;;5.30;99.90;;;;;;5033343;28;20516;-64
2022/12/19 00:43:42;;;;;;;21.73;14.02;;;5.30;99.90;;;;;;5034746;28;20174;-64
2022/12/19 00:46:11;;;;;;;20.67;14.00;;;5.40;99.90;;;;;;5033492;28;20194;-64
2022/12/19 00:48:37;;;;;;;22.38;14.20;;;5.30;99.90;;;;;;5033577;28;20183;-63
2022/12/19 00:51:16;;;;;;;19.20;13.68;;;5.30;99.90;;;;;;5034171;28;20174;-64
2022/12/19 00:53:43;;;;;;;21.75;13.77;;;5.30;99.90;;;;;;5034743;28;20201;-63
2022/12/19 00:56:12;;;;;;;21.33;13.82;;;5.40;99.90;;;;;;5031859;28;20182;-63
2022/12/19 00:58:39;;;;;;;24.05;15.05;;;5.50;99.90;;;;;;5032991;28;20226;-63
2022/12/19 01:01:10;;;;;;;23.35;13.23;;;5.50;99.90;;;;;;5033839;28;20183;-64
2022/12/19 01:03:36;;;;;;;24.63;15.70;;;5.50;99.90;;;;;;5032464;28;20186;-64
2022/12/19 01:06:02;;;;;;;21.90;13.83;;;5.40;99.90;;;;;;5033829;28;20266;-64
2022/12/19 01:08:28;;;;;;;24.63;15.57;;;5.20;99.90;;;;;;5033414;28;20432;-64
2022/12/19 01:10:53;;;;;;;23.80;14.97;;;5.20;99.90;;;;;;5033418;28;20214;-63
2022/12/19 01:13:21;;;;;;;20.93;14.97;;;5.10;99.90;;;;;;5032812;28;20278;-64
2022/12/19 01:15:47;;;;;;;23.60;15.02;;;5.00;99.90;;;;;;5033256;28;20806;-64
2022/12/19 01:18:12;;;;;;;20.90;14.40;;;5.00;99.90;;;;;;5032637;28;20206;-64
2022/12/19 01:20:40;;;;;;;23.37;15.67;;;5.10;99.90;;;;;;5033205;28;20221;-64
2022/12/19 01:23:07;;;;;;;25.13;15.90;;;5.20;99.90;;;;;;5031652;28;20554;-64
2022/12/19 01:25:34;;;;;;;24.92;16.60;;;5.20;99.90;;;;;;5032399;28;20700;-63
2022/12/19 01:28:00;;;;;;;19.73;13.68;;;5.00;99.90;;;;;;5034001;28;20175;-63
2022/12/19 01:30:26;;;;;;;23.92;15.40;;;5.20;99.90;;;;;;5032958;28;20189;-63
2022/12/19 01:32:52;;;;;;;21.13;15.00;;;5.10;99.90;;;;;;5033171;28;20178;-63
2022/12/19 01:35:18;;;;;;;23.70;14.77;;;5.20;99.90;;;;;;5032078;28;20178;-64
2022/12/19 01:37:43;;;;;;;26.10;14.67;;;5.30;99.90;;;;;;5033509;28;20623;-63
2022/12/19 01:40:11;;;;;;;19.67;13.40;;;5.20;99.90;;;;;;5032075;28;20613;-64
2022/12/19 01:42:39;;;;;;;22.65;14.18;;;5.10;99.90;;;;;;5032809;28;20183;-63
2022/12/19 01:45:08;;;;;;;22.80;14.57;;;5.20;99.90;;;;;;5032951;28;20228;-63
2022/12/19 01:47:50;;;;;;;18.98;13.13;;;5.30;99.90;;;;;;5032529;28;20186;-64
2022/12/19 01:50:32;;;;;;;23.55;14.77;;;5.50;99.90;;;;;;5032324;28;20495;-64
2022/12/19 01:53:00;;;;;;;19.92;12.75;;;5.60;99.90;;;;;;5031856;28;20249;-64
2022/12/19 01:55:26;;;;;;;21.80;14.70;;;5.60;99.90;;;;;;5031893;28;20693;-63
2022/12/19 01:57:53;;;;;;;21.23;13.80;;;5.60;99.90;;;;;;5031981;28;20670;-64
2022/12/19 02:00:19;;;;;;;21.13;14.07;;;5.20;99.90;;;;;;5032630;28;20202;-63
2022/12/19 02:02:55;;;;;;;22.97;13.70;;;5.10;99.90;;;;;;5031304;28;20183;-63
2022/12/19 02:05:21;;;;;;;23.80;14.80;;;5.30;99.90;;;;;;5030087;28;20444;-64
2022/12/19 02:07:47;;;;;;;20.23;13.40;;;5.30;99.90;;;;;;5032570;28;20640;-65
2022/12/19 02:10:13;;;;;;;22.20;14.13;;;5.20;99.90;;;;;;5032434;28;20864;-64
2022/12/19 02:12:42;;;;;;;22.20;14.43;;;5.30;99.90;;;;;;5031588;28;20189;-63
2022/12/19 02:15:09;;;;;;;23.50;15.05;;;5.40;99.90;;;;;;5031314;28;20649;-64
2022/12/19 02:18:00;;;;;;;21.00;14.00;;;5.20;99.90;;;;;;5032128;28;20558;-63
2022/12/19 02:20:54;;;;;;;23.90;15.55;;;5.40;99.90;;;;;;5031463;28;20214;-63
2022/12/19 02:23:26;;;;;;;21.05;13.13;;;5.30;99.90;;;;;;5025260;28;20226;-64
2022/12/19 02:26:16;;;;;;;18.80;13.45;;;5.10;99.90;;;;;;5032145;28;20166;-63
2022/12/19 02:29:00;;;;;;;20.92;14.18;;;5.20;99.90;;;;;;5032922;28;20198;-63
2022/12/19 02:31:33;;;;;;;18.08;13.35;;;5.20;99.90;;;;;;5032187;28;20178;-64
2022/12/19 02:34:27;;;;;;;23.15;14.75;;;5.20;99.90;;;;;;5032040;28;20181;-64
2022/12/19 02:37:16;;;;;;;19.67;14.13;;;5.20;99.90;;;;;;5032070;28;20186;-63
2022/12/19 02:39:59;;;;;;;19.88;13.30;;;5.10;99.90;;;;;;5030535;28;20210;-64
2022/12/19 02:42:29;;;;;;;21.15;13.95;;;5.10;99.90;;;;;;5032063;28;20432;-64
2022/12/19 02:44:56;;;;;;;22.08;14.20;;;5.00;99.90;;;;;;5030021;28;20197;-64
2022/12/19 02:47:22;;;;;;;20.90;13.93;;;5.10;99.90;;;;;;5031105;28;20244;-64
2022/12/19 02:49:48;;;;;;;25.87;14.80;;;5.30;99.90;;;;;;5031516;28;20179;-64
2022/12/19 02:52:20;;;;;;;20.97;13.97;;;5.40;99.90;;;;;;5000795;28;20473;-64
2022/12/19 02:54:49;;;;;;;21.02;14.13;;;5.60;99.90;;;;;;5017586;28;20178;-64
2022/12/19 02:57:32;;;;;;;25.48;15.20;;;5.40;99.90;;;;;;5031921;28;20261;-64
2022/12/19 03:00:11;;;;;;;21.95;15.02;;;5.30;99.90;;;;;;5031647;28;20206;-64
2022/12/19 03:02:44;;;;;;;18.67;13.75;;;5.40;99.90;;;;;;5031170;28;20190;-64
2022/12/19 03:05:22;;;;;;;22.38;14.90;;;5.40;99.90;;;;;;5031355;28;20530;-64
2022/12/19 03:08:26;;;;;;;17.23;13.38;;;5.40;99.90;;;;;;5030876;28;20182;-64
2022/12/19 03:10:59;;;;;;;20.15;13.95;;;5.40;99.90;;;;;;5036246;28;20558;-64
2022/12/19 03:13:42;;;;;;;21.40;14.00;;;5.40;99.90;;;;;;5035936;28;20249;-64
2022/12/19 03:16:10;;;;;;;22.10;15.00;;;5.40;99.90;;;;;;5034986;28;20224;-64
2022/12/19 03:18:37;;;;;;;22.00;14.32;;;5.60;99.90;;;;;;5034471;28;20190;-63
2022/12/19 03:21:20;;;;;;;21.38;13.63;;;5.70;99.90;;;;;;5034419;28;20178;-64
2022/12/19 03:23:49;;;;;;;20.30;14.07;;;5.70;99.90;;;;;;5034547;28;20622;-64
2022/12/19 03:26:20;;;;;;;18.30;13.40;;;5.80;99.90;;;;;;5034074;28;20726;-64
2022/12/19 03:29:04;;;;;;;17.50;13.18;;;5.70;99.90;;;;;;5035128;28;20190;-64
2022/12/19 03:31:32;;;;;;;23.98;13.30;;;5.90;99.90;;;;;;5034464;28;20183;-64
2022/12/19 03:34:08;;;;;;;18.80;13.70;;;5.80;99.90;;;;;;5035732;28;20238;-64
2022/12/19 03:36:48;;;;;;;18.02;12.75;;;5.90;99.90;;;;;;5034610;28;20549;-64
2022/12/19 03:39:15;;;;;;;23.42;13.50;;;6.00;99.90;;;;;;5034474;28;20218;-64
2022/12/19 03:44:32;;;;;;;16.60;12.63;;;6.20;99.90;;;;;;5033928;28;20274;-64
2022/12/19 03:47:22;;;;;;;17.73;12.40;;;6.10;99.90;;;;;;5034917;28;20437;-64
2022/12/19 03:49:49;;;;;;;21.35;13.10;;;6.00;99.90;;;;;;5034890;28;20524;-64
2022/12/19 03:52:42;;;;;;;16.65;12.07;;;6.00;99.90;;;;;;5033042;28;20194;-64
2022/12/19 03:55:25;;;;;;;19.00;13.15;;;5.90;99.90;;;;;;5034418;28;20505;-65
2022/12/19 03:58:12;;;;;;;18.00;11.90;;;5.90;99.90;;;;;;5025526;28;20236;-63
2022/12/19 04:00:42;;;;;;;17.13;11.07;;;5.90;99.90;;;;;;5030571;28;20808;-63
2022/12/19 04:03:10;;;;;;;18.35;13.55;;;6.10;99.90;;;;;;5025944;28;20531;-63
2022/12/19 04:05:38;;;;;;;21.42;13.90;;;6.10;99.90;;;;;;5034038;28;20228;-64
2022/12/19 04:08:06;;;;;;;24.40;14.20;;;6.10;99.90;;;;;;5034827;28;20187;-64
2022/12/19 04:10:42;;;;;;;18.17;13.68;;;6.10;99.90;;;;;;5033530;28;20194;-66
2022/12/19 04:13:14;;;;;;;18.30;13.35;;;5.90;99.90;;;;;;5033265;28;20201;-64
2022/12/19 04:16:06;;;;;;;23.65;14.13;;;6.00;99.90;;;;;;5024348;28;20549;-65
2022/12/19 04:18:33;;;;;;;23.10;13.70;;;6.00;99.90;;;;;;5008288;28;20269;-65
2022/12/19 04:21:10;;;;;;;19.20;13.88;;;6.00;99.90;;;;;;5030305;28;20444;-63
2022/12/19 04:23:59;;;;;;;19.90;13.70;;;6.00;99.90;;;;;;5034078;28;20690;-63
2022/12/19 04:26:26;;;;;;;23.83;14.73;;;6.00;99.90;;;;;;5034487;28;20181;-64
2022/12/19 04:28:55;;;;;;;17.20;13.83;;;6.10;99.90;;;;;;5034183;28;20188;-64
2022/12/19 04:31:23;;;;;;;16.60;12.37;;;6.30;99.90;;;;;;5034397;28;20464;-63
2022/12/19 04:33:49;;;;;;;17.90;13.60;;;6.40;99.90;;;;;;5034799;28;20454;-64
2022/12/19 04:36:15;;;;;;;21.20;13.47;;;6.60;99.90;;;;;;5033487;28;20437;-64
2022/12/19 04:38:40;;;;;;;20.23;13.77;;;6.70;99.90;;;;;;5035058;28;20184;-64
2022/12/19 04:41:06;;;;;;;16.07;12.87;;;6.80;99.90;;;;;;5033107;28;20188;-64
2022/12/19 04:43:32;;;;;;;21.17;13.57;;;6.80;99.90;;;;;;5033327;28;20266;-63
2022/12/19 04:45:58;;;;;;;22.00;12.90;;;6.80;99.90;;;;;;5033471;28;20196;-64
2022/12/19 04:48:24;;;;;;;20.77;14.40;;;6.80;99.90;;;;;;5034063;28;20226;-63
2022/12/19 04:50:50;;;;;;;18.00;13.40;;;6.80;99.90;;;;;;5033471;28;20444;-64
2022/12/19 04:53:15;;;;;;;20.70;14.13;;;6.70;99.90;;;;;;5034034;28;20881;-64
2022/12/19 04:55:43;;;;;;;20.30;14.50;;;6.80;99.90;;;;;;5033622;28;20191;-63
2022/12/19 04:58:08;;;;;;;17.57;13.30;;;6.70;99.90;;;;;;5033685;28;20540;-64
2022/12/19 05:00:34;;;;;;;18.97;13.43;;;6.90;99.90;;;;;;5032891;28;20437;-64
2022/12/19 05:03:00;;;;;;;16.50;13.13;;;7.00;99.90;;;;;;5034427;28;20404;-63
2022/12/19 05:05:26;;;;;;;17.67;13.43;;;7.10;99.90;;;;;;5032965;28;20181;-64
2022/12/19 05:07:52;;;;;;;18.63;12.47;;;7.30;99.90;;;;;;5033509;28;20315;-64
2022/12/19 05:10:17;;;;;;;15.33;12.20;;;7.20;99.90;;;;;;5033050;28;20538;-64
2022/12/19 05:12:43;;;;;;;16.77;12.50;;;7.20;99.90;;;;;;5032500;28;20181;-64
2022/12/19 05:15:10;;;;;;;16.63;12.77;;;7.10;99.90;;;;;;5033315;28;20618;-67
2022/12/19 05:17:36;;;;;;;15.30;12.23;;;7.20;99.90;;;;;;5033246;28;20185;-64
2022/12/19 05:20:03;;;;;;;14.73;12.60;;;7.20;99.90;;;;;;5033134;28;20466;-64
2022/12/19 05:22:29;;;;;;;18.77;12.93;;;7.40;99.90;;;;;;5032480;28;20471;-63
2022/12/19 05:24:54;;;;;;;15.80;12.40;;;7.40;99.90;;;;;;5034208;28;20386;-63
2022/12/19 05:27:20;;;;;;;15.73;12.07;;;7.30;99.90;;;;;;5032588;28;20220;-64
2022/12/19 05:29:46;;;;;;;16.23;11.30;;;7.30;99.90;;;;;;5031276;28;20192;-64
2022/12/19 05:32:11;;;;;;;17.53;13.03;;;7.40;99.90;;;;;;5032988;28;20176;-64
2022/12/19 05:34:37;;;;;;;20.10;13.50;;;7.50;99.90;;;;;;5030251;28;20193;-64
2022/12/19 05:37:03;;;;;;;15.43;12.43;;;7.60;99.90;;;;;;5026401;28;20185;-63
2022/12/19 05:39:29;;;;;;;17.80;12.67;;;7.60;99.90;;;;;;5031544;28;20625;-64
2022/12/19 05:41:55;;;;;;;16.23;13.23;;;7.60;99.90;;;;;;5033046;28;20190;-64
2022/12/19 05:44:21;;;;;;;17.80;13.17;;;7.60;99.90;;;;;;5030898;28;20796;-63
2022/12/19 05:46:46;;;;;;;14.83;12.03;;;7.70;99.90;;;;;;5032115;28;20660;-64
2022/12/19 05:49:15;;;;;;;14.67;12.83;;;7.70;99.90;;;;;;5032858;28;20521;-64
2022/12/19 05:51:41;;;;;;;17.03;12.30;;;7.60;99.90;;;;;;5032919;28;20196;-63
2022/12/19 05:54:09;;;;;;;20.07;13.10;;;7.60;99.90;;;;;;5029514;28;20435;-64
2022/12/19 05:56:34;;;;;;;15.90;11.87;;;7.60;99.90;;;;;;5030772;28;20405;-63
2022/12/19 05:59:00;;;;;;;18.10;13.00;;;7.70;99.90;;;;;;5031919;28;20736;-64
2022/12/19 06:01:29;;;;;;;18.23;12.50;;;7.70;99.90;;;;;;5030638;28;20182;-64
2022/12/19 06:03:55;;;;;;;16.30;11.20;;;7.70;99.90;;;;;;5032556;28;20231;-65
2022/12/19 06:06:25;;;;;;;14.03;11.90;;;7.70;99.90;;;;;;5029861;28;20475;-64
2022/12/19 06:08:53;;;;;;;16.90;12.47;;;7.70;99.90;;;;;;5032337;28;20440;-64
2022/12/19 06:11:19;;;;;;;14.23;11.27;;;7.70;99.90;;;;;;5025973;28;20436;-64
2022/12/19 06:13:44;;;;;;;14.30;11.07;;;7.70;99.90;;;;;;5033205;28;20813;-64
2022/12/19 06:16:13;;;;;;;12.17;10.43;;;7.70;99.90;;;;;;5030880;28;20180;-64
2022/12/19 06:18:40;;;;;;;14.07;10.73;;;7.80;99.90;;;;;;5032350;28;20656;-63
2022/12/19 06:21:09;;;;;;;13.00;10.50;;;7.80;99.90;;;;;;5031163;28;20443;-63
2022/12/19 06:23:36;;;;;;;12.40;10.10;;;7.80;99.90;;;;;;5031057;28;20471;-63
2022/12/19 06:26:04;;;;;;;11.80;10.37;;;7.80;99.90;;;;;;5032027;28;20533;-64
2022/12/19 06:28:31;;;;;;;12.17;10.37;;;7.90;99.90;;;;;;5032222;28;20428;-64
2022/12/19 06:30:57;;;;;;;12.17;10.50;;;7.90;99.90;;;;;;5035842;28;20444;-64
2022/12/19 06:33:24;;;;;;;12.80;9.73;;;8.00;99.90;;;;;;5030879;28;20443;-63
2022/12/19 06:36:00;;;;;;;13.90;10.97;;;7.90;99.90;;;;;;5036060;28;20421;-64
2022/12/19 06:38:27;;;;;;;13.40;10.40;;;8.00;99.90;;;;;;5036489;28;20443;-64
2022/12/19 06:43:39;;;;;;;11.63;9.40;;;8.00;99.90;;;;;;5031099;28;20734;-64
2022/12/19 06:46:05;;;;;;;13.60;10.47;;;8.00;99.90;;;;;;5032578;28;20412;-63
2022/12/19 06:48:31;;;;;;;13.97;10.57;;;8.10;99.90;;;;;;5030886;28;20448;-64
2022/12/19 06:50:57;;;;;;;14.70;9.70;;;8.00;99.90;;;;;;5031744;28;20441;-64
2022/12/19 06:53:23;;;;;;;11.37;9.80;;;8.00;99.90;;;;;;5031859;28;20409;-64
2022/12/19 06:55:52;;;;;;;12.27;10.30;;;7.90;99.90;;;;;;5031910;28;20185;-64
2022/12/19 06:58:18;;;;;;;10.43;9.27;;;7.90;99.90;;;;;;5031587;28;20193;-64
2022/12/19 07:00:43;;;;;;;11.50;9.57;;;7.80;99.90;;;;;;5031829;28;20459;-64
2022/12/19 07:03:12;;;;;;;13.60;11.30;;;7.80;99.90;;;;;;5031557;28;20443;-64
2022/12/19 07:05:39;;;;;;;10.87;9.77;;;7.90;99.90;;;;;;5030868;28;20232;-63
2022/12/19 07:08:05;;;;;;;13.40;10.17;;;7.80;99.90;;;;;;5031745;28;20415;-64
2022/12/19 07:10:31;;;;;;;10.17;9.10;;;7.80;99.90;;;;;;5031506;28;20447;-63
2022/12/19 07:12:56;;;;;;;10.37;9.20;;;7.90;99.90;;;;;;5030519;28;20471;-63
2022/12/19 07:15:23;;;;;;;11.30;10.20;;;7.90;99.90;;;;;;5031434;28;20207;-65
2022/12/19 07:17:49;;;;;;;10.67;9.40;;;7.80;99.90;;;;;;5028718;28;20185;-63
2022/12/19 07:20:16;;;;;;;11.20;9.50;;;7.90;99.90;;;;;;5031220;28;20883;-63
2022/12/19 07:22:43;;;;;;;10.93;9.83;;;7.90;99.90;;;;;;5029871;28;20246;-63
2022/12/19 07:25:09;;;;;;;11.77;9.60;;;8.00;99.90;;;;;;5031915;28;20440;-64
2022/12/19 07:27:35;;;;;;;11.90;9.60;;;8.00;99.90;;;;;;5028982;28;20539;-64
2022/12/19 07:30:01;;;;;;;11.43;9.50;;;8.10;99.90;;;;;;5028736;28;20444;-65
2022/12/19 07:32:26;;;;;;;13.60;10.10;;;8.10;99.90;;;;;;5030592;28;20444;-63
2022/12/19 07:34:52;;;;;;;10.57;9.20;;;8.10;99.90;;;;;;5031280;28;20182;-63
2022/12/19 07:37:18;;;;;;;13.90;9.70;;;8.10;99.90;;;;;;5031161;28;22207;-63
2022/12/19 07:39:43;;;;;;;12.47;9.73;;;8.20;99.90;;;;;;5029248;28;20214;-63
2022/12/19 07:42:09;;;;;;;11.87;10.17;;;8.40;99.90;;;;;;5030894;28;20189;-63
2022/12/19 07:44:35;;;;;;;13.63;9.90;;;8.30;99.90;;;;;;5030070;28;20186;-63
2022/12/19 07:47:00;;;;;;;12.10;10.30;;;8.20;99.90;;;;;;5030680;28;20181;-63
2022/12/19 07:49:26;;;;;;;11.50;10.30;;;8.30;99.90;;;;;;5028111;28;20214;-64
2022/12/19 07:51:52;;;;;;;13.77;11.37;;;8.30;99.90;;;;;;5024981;28;20182;-63
2022/12/19 07:54:18;;;;;;;12.50;10.00;;;8.40;99.90;;;;;;5031286;28;20198;-64
2022/12/19 07:56:43;;;;;;;13.43;10.87;;;8.40;99.90;;;;;;5033210;28;20199;-63
2022/12/19 07:59:09;;;;;;;12.20;10.90;;;8.50;99.90;;;;;;5034700;28;20206;-64
2022/12/19 08:01:35;;;;;;;13.40;10.90;;;8.50;99.90;;;;;;5034208;28;20985;-64
2022/12/19 08:04:01;;;;;;;14.43;10.97;;;8.60;99.90;;;;;;5034630;28;20231;-65
2022/12/19 08:06:28;;;;;;;12.77;9.80;;;8.60;99.90;;;;;;5030282;28;20253;-72
2022/12/19 08:08:54;;;;;;;13.67;11.87;;;8.60;99.90;;;;;;5039442;28;20722;-64
2022/12/19 08:11:25;;;;;;;16.70;12.07;;;8.60;99.90;;;;;;5023288;28;20774;-64
2022/12/19 08:13:52;;;;;;;12.27;10.70;;;8.40;99.90;;;;;;5034096;28;21993;-67
2022/12/19 08:16:18;;;;;;;13.80;11.27;;;8.50;99.90;;;;;;5035344;28;20397;-64
2022/12/19 08:18:44;;;;;;;15.30;13.10;;;8.40;99.90;;;;;;5031790;28;20967;-64
2022/12/19 08:21:10;;;;;;;14.43;12.77;;;8.50;99.90;;;;;;5032688;28;20436;-64
2022/12/19 08:23:37;;;;;;;15.20;12.80;;;8.60;99.90;;;;;;5033842;28;20226;-64
2022/12/19 08:26:25;;;;;;;12.47;11.10;;;8.70;99.90;;;;;;5034368;28;20425;-64
2022/12/19 08:28:56;;;;;;;13.07;11.13;;;8.80;99.90;;;;;;5033829;28;20752;-63
2022/12/19 08:31:24;;;;;;;13.20;11.50;;;8.90;99.90;;;;;;5033791;28;20771;-64
2022/12/19 08:33:51;;;;;;;15.63;12.67;;;8.90;99.90;;;;;;5033959;28;20457;-64
2022/12/19 08:36:18;;;;;;;17.10;11.43;;;8.80;99.90;;;;;;5034136;28;20472;-64
2022/12/19 08:38:44;;;;;;;16.47;12.90;;;8.80;99.90;;;;;;5034303;28;20417;-64
2022/12/19 08:41:10;;;;;;;15.17;12.20;;;8.80;99.90;;;;;;5033997;28;20760;-64
2022/12/19 08:43:37;;;;;;;13.67;12.00;;;8.80;99.90;;;;;;5033776;28;20475;-67
2022/12/19 08:46:03;;;;;;;14.63;12.10;;;8.80;99.90;;;;;;5034559;28;20240;-64
2022/12/19 08:48:31;;;;;;;12.97;10.80;;;8.80;99.90;;;;;;5033337;28;20425;-64
2022/12/19 08:50:59;;;;;;;14.30;11.90;;;8.80;99.90;;;;;;5034342;28;20444;-66
2022/12/19 08:53:27;;;;;;;13.93;11.40;;;8.80;99.90;;;;;;5034737;28;20401;-67
2022/12/19 08:55:55;;;;;;;14.77;12.77;;;9.30;99.90;;;;;;5033851;28;20433;-65
2022/12/19 08:58:21;;;;;;;14.47;12.70;;;9.90;99.90;;;;;;5033781;28;20822;-66
2022/12/19 09:00:47;;;;;;;12.80;11.00;;;10.40;99.90;;;;;;5033114;28;20468;-67
2022/12/19 09:03:13;;;;;;;11.87;10.60;;;11.00;99.90;;;;;;5034063;28;20414;-67
2022/12/19 09:05:39;;;;;;;13.73;11.83;;;11.40;99.90;;;;;;5031864;28;20182;-64
2022/12/19 09:08:06;;;;;;;13.40;11.30;;;11.60;99.90;;;;;;5032931;28;20405;-64
2022/12/19 09:10:35;;;;;;;11.63;10.33;;;11.60;99.90;;;;;;5033426;28;20747;-64
2022/12/19 09:13:01;;;;;;;14.97;11.60;;;11.50;99.90;;;;;;5033141;28;20559;-63
2022/12/19 09:15:27;;;;;;;13.30;11.20;;;11.20;99.90;;;;;;5033480;28;20522;-70
2022/12/19 09:17:52;;;;;;;13.13;11.73;;;10.90;99.90;;;;;;5034166;28;20170;-64
2022/12/19 09:20:18;;;;;;;12.63;11.20;;;10.70;99.90;;;;;;5032875;28;20490;-65
2022/12/19 09:22:44;;;;;;;13.17;9.33;;;10.60;99.90;;;;;;5032594;28;20230;-65
2022/12/19 09:25:09;;;;;;;12.00;10.50;;;10.30;99.90;;;;;;5034367;28;20625;-65
2022/12/19 09:27:35;;;;;;;11.70;9.90;;;10.30;99.90;;;;;;5029873;28;20258;-65
2022/12/19 09:30:01;;;;;;;11.77;10.50;;;10.10;99.90;;;;;;5032821;28;20186;-66
2022/12/19 09:32:27;;;;;;;13.75;11.38;;;10.00;99.90;;;;;;5033258;28;20491;-66
2022/12/19 09:34:53;;;;;;;14.02;12.45;;;10.00;99.90;;;;;;5030317;28;20475;-66
2022/12/19 09:37:19;;;;;;;13.93;11.80;;;10.10;99.90;;;;;;5028194;28;20905;-66
2022/12/19 09:39:45;;;;;;;12.27;10.40;;;10.00;99.90;;;;;;5030337;28;20558;-66
2022/12/19 09:42:34;;;;;;;11.10;9.53;;;9.90;99.90;;;;;;5032771;28;20181;-67
2022/12/19 09:45:25;;;;;;;11.77;10.20;;;9.90;99.90;;;;;;5034089;28;20419;-68
2022/12/19 09:47:56;;;;;;;12.02;10.25;;;9.80;99.90;;;;;;5012943;28;20495;-65
2022/12/19 09:50:37;;;;;;;13.23;11.85;;;9.70;99.90;;;;;;5026689;28;20916;-66
2022/12/19 09:53:14;;;;;;;12.48;11.10;;;9.80;99.90;;;;;;5031557;28;20468;-66
2022/12/19 09:55:40;;;;;;;11.93;10.23;;;9.90;99.90;;;;;;5031624;28;20233;-66
2022/12/19 09:58:11;;;;;;;13.53;9.97;;;9.80;99.90;;;;;;5031905;28;20991;-66
2022/12/19 10:01:01;;;;;;;12.65;11.35;;;9.80;99.90;;;;;;5030800;28;20453;-66
2022/12/19 10:03:45;;;;;;;12.10;10.47;;;9.70;99.90;;;;;;5031659;28;20242;-66
2022/12/19 10:06:20;;;;;;;13.23;11.30;;;9.80;99.90;;;;;;5033329;28;20419;-66
2022/12/19 10:08:47;;;;;;;11.73;10.50;;;9.70;99.90;;;;;;5032008;28;20444;-66
2022/12/19 10:11:16;;;;;;;13.05;10.93;;;9.80;99.90;;;;;;5031244;28;20849;-66
2022/12/19 10:14:05;;;;;;;13.00;11.70;;;9.80;99.90;;;;;;5035529;28;20420;-66
2022/12/19 10:16:49;;;;;;;13.73;12.20;;;10.00;99.90;;;;;;5046116;28;20898;-70
2022/12/19 10:19:43;;;;;;;12.90;10.70;;;10.10;99.90;;;;;;5028525;28;20363;-66
2022/12/19 10:22:17;;;;;;;11.50;9.20;;;10.20;99.90;;;;;;5031635;28;20477;-66
2022/12/19 10:24:52;;;;;;;10.63;9.53;;;10.20;99.90;;;;;;5029681;28;20478;-66
2022/12/19 10:27:44;;;;;;;12.43;9.67;;;10.20;99.90;;;;;;5032374;28;20417;-66
2022/12/19 10:30:13;;;;;;;12.00;10.80;;;10.30;99.90;;;;;;5011860;28;20994;-66
2022/12/19 10:33:00;;;;;;;11.47;10.30;;;10.40;99.90;;;;;;5028966;28;20232;-66
2022/12/19 10:35:41;;;;;;;12.30;10.20;;;10.40;99.90;;;;;;5033072;28;20435;-65
2022/12/19 10:38:25;;;;;;;10.93;9.80;;;10.50;99.90;;;;;;5032338;28;20759;-66
2022/12/19 10:41:06;;;;;;;13.82;11.40;;;10.40;99.90;;;;;;5010004;28;20947;-66
2022/12/19 10:43:51;;;;;;;13.10;10.30;;;10.60;99.90;;;;;;5028855;28;20185;-66
2022/12/19 10:46:32;;;;;;;12.70;9.70;;;10.50;99.90;;;;;;5030157;28;20439;-66
2022/12/19 10:48:58;;;;;;;11.33;10.13;;;10.50;99.90;;;;;;5030851;28;20738;-65
2022/12/19 10:51:30;;;;;;;11.80;9.97;;;10.50;99.90;;;;;;5030005;28;20443;-66
2022/12/19 10:53:58;;;;;;;11.80;9.47;;;10.50;99.90;;;;;;5031225;28;20516;-66
2022/12/19 10:56:26;;;;;;;10.77;9.67;;;10.50;99.90;;;;;;5031670;28;20450;-66
2022/12/19 10:58:57;;;;;;;12.77;11.47;;;10.50;99.90;;;;;;5030106;28;20539;-66
2022/12/19 11:01:36;;;;;;;12.23;10.47;;;10.50;99.90;;;;;;5031666;28;20789;-66
2022/12/19 11:04:32;;;;;;;11.10;9.50;;;10.30;99.90;;;;;;5031387;28;20440;-66
2022/12/19 11:07:04;;;;;;;11.97;10.03;;;10.30;99.90;;;;;;5030855;28;20933;-66
2022/12/19 11:09:40;;;;;;;12.37;10.43;;;10.30;99.90;;;;;;5031596;28;20531;-65
2022/12/19 11:12:10;;;;;;;12.27;10.60;;;10.20;99.90;;;;;;5031658;28;20416;-66
2022/12/19 11:14:39;;;;;;;12.63;10.73;;;10.20;99.90;;;;;;5031890;28;20440;-66
2022/12/19 11:17:05;;;;;;;11.83;10.50;;;10.10;99.90;;;;;;5029498;28;20510;-66
2022/12/19 11:19:37;;;;;;;12.10;9.43;;;10.10;99.90;;;;;;5030174;28;20465;-67
2022/12/19 11:22:15;;;;;;;12.53;9.80;;;10.00;99.90;;;;;;5012447;28;20418;-65
2022/12/19 11:24:47;;;;;;;12.00;10.30;;;9.90;99.90;;;;;;5024214;28;20509;-66
2022/12/19 11:27:30;;;;;;;10.33;9.13;;;10.00;99.90;;;;;;5031846;28;20438;-66
2022/12/19 11:29:58;;;;;;;11.30;9.33;;;10.00;99.90;;;;;;5030515;28;20445;-66
2022/12/19 11:32:35;;;;;;;12.10;9.80;;;10.10;99.90;;;;;;5034733;28;20422;-66
2022/12/19 11:35:18;;;;;;;10.87;9.70;;;10.20;99.90;;;;;;5034155;28;20428;-66
2022/12/19 11:37:50;;;;;;;11.63;9.73;;;10.30;99.90;;;;;;5034738;28;20520;-65
2022/12/19 11:40:32;;;;;;;13.47;10.57;;;10.30;99.90;;;;;;5035942;28;20462;-65
2022/12/19 11:43:36;;;;;;;10.33;9.17;;;10.30;99.90;;;;;;5032821;28;20438;-65
2022/12/19 11:46:21;;;;;;;11.00;9.20;;;10.30;99.90;;;;;;5033733;28;20465;-65
2022/12/19 11:48:51;;;;;;;9.80;8.80;;;10.30;99.90;;;;;;5033688;28;20955;-65
2022/12/19 11:51:22;;;;;;;12.10;9.20;;;10.30;99.90;;;;;;5034996;28;20909;-65
2022/12/19 11:54:31;;;;;;;12.67;10.00;;;10.40;99.90;;;;;;5035049;28;20409;-66
2022/12/19 11:56:57;;;;;;;9.73;8.73;;;10.40;99.90;;;;;;5025673;28;20533;-65
2022/12/19 11:59:37;;;;;;;11.77;9.47;;;10.40;99.90;;;;;;5034535;28;20469;-66
2022/12/19 12:02:17;;;;;;;10.50;9.10;;;10.60;99.90;;;;;;5032634;28;20940;-65
2022/12/19 12:05:02;;;;;;;10.10;9.07;;;10.40;99.90;;;;;;5030965;28;20534;-65
2022/12/19 12:07:34;;;;;;;9.97;8.67;;;10.30;99.90;;;;;;5033512;28;20975;-65
2022/12/19 12:10:06;;;;;;;9.70;8.57;;;10.30;99.90;;;;;;5033918;28;20438;-65
2022/12/19 12:13:04;;;;;;;10.13;8.70;;;10.20;99.90;;;;;;5034567;28;20432;-67
2022/12/19 12:16:08;;;;;;;10.20;9.10;;;10.20;99.90;;;;;;5025279;28;20447;-66
2022/12/19 12:19:11;;;;;;;9.30;8.33;;;10.30;99.90;;;;;;5024793;28;20522;-66
2022/12/19 12:21:50;;;;;;;10.00;8.67;;;10.30;99.90;;;;;;5033026;28;20931;-65
2022/12/19 12:24:37;;;;;;;11.20;8.73;;;10.30;99.90;;;;;;5033422;28;20474;-66
2022/12/19 12:27:30;;;;;;;10.17;9.10;;;10.30;99.90;;;;;;5033802;28;20494;-66
2022/12/19 12:29:58;;;;;;;16.93;9.60;;;10.20;99.90;;;;;;5034171;28;20402;-66
2022/12/19 12:32:48;;;;;;;11.67;8.77;;;10.10;99.90;;;;;;5033913;28;20840;-65
2022/12/19 12:35:35;;;;;;;11.10;8.30;;;10.10;99.90;;;;;;5033813;28;20433;-65
2022/12/19 12:38:41;;;;;;;10.43;9.33;;;10.20;99.90;;;;;;5030991;28;20445;-65
2022/12/19 12:41:07;;;;;;;10.40;8.20;;;10.20;99.90;;;;;;5034819;28;20771;-65
2022/12/19 12:43:52;;;;;;;9.50;8.03;;;10.20;99.90;;;;;;5033959;28;20439;-65
2022/12/19 12:46:33;;;;;;;9.80;8.90;;;10.20;99.90;;;;;;5034828;28;20165;-65
2022/12/19 12:49:33;;;;;;;10.80;8.77;;;10.40;99.90;;;;;;5032805;28;20838;-65
2022/12/19 12:51:59;;;;;;;10.00;8.77;;;10.30;99.90;;;;;;4999758;28;20854;-65
2022/12/19 12:54:31;;;;;;;11.30;8.13;;;10.40;99.90;;;;;;5032753;28;20782;-65
2022/12/19 12:56:57;;;;;;;10.70;9.27;;;10.50;99.90;;;;;;5029863;28;20442;-66
2022/12/19 12:59:26;;;;;;;10.37;8.93;;;10.50;99.90;;;;;;5035525;28;20478;-65
2022/12/19 13:02:00;;;;;;;10.50;9.50;;;10.60;99.90;;;;;;5036407;28;20232;-65
2022/12/19 13:04:35;;;;;;;10.33;9.23;;;10.70;99.90;;;;;;5033264;28;20443;-66